Time;durP1;ratioP1;P1;durP2;ratioP2;P2;SDS_P1;SDS_P2;PMS_P1;PMS_P2;Temp;Humidity;BMP_temperature;BMP_pressure;BME280_temperature;BME280_humidity;BME280_pressure;Samples;Min_cycle;Max_cycle;Signal;HPM_P1;HPM_P2
2023/05/23 00:02:08;;;;;;;8.77;5.90;;;18.90;65.70;;;;;;5002361;28;20037;-76
2023/05/23 00:04:35;;;;;;;7.22;5.93;;;18.90;65.70;;;;;;4978857;28;20026;-76
2023/05/23 00:07:01;;;;;;;6.95;5.75;;;18.80;66.70;;;;;;4985756;28;20100;-76
2023/05/23 00:09:27;;;;;;;8.93;6.38;;;18.80;66.10;;;;;;4996966;28;20033;-76
2023/05/23 00:11:52;;;;;;;6.80;5.82;;;18.70;66.30;;;;;;4998533;28;20411;-76
2023/05/23 00:14:18;;;;;;;9.30;6.25;;;18.70;66.50;;;;;;4983943;28;20515;-76
2023/05/23 00:16:44;;;;;;;6.90;6.20;;;18.70;66.50;;;;;;4983256;28;20049;-76
2023/05/23 00:19:10;;;;;;;9.25;6.55;;;18.60;66.80;;;;;;4968043;28;20041;-74
2023/05/23 00:21:36;;;;;;;7.32;6.28;;;18.60;66.80;;;;;;4966132;28;20037;-76
2023/05/23 00:24:01;;;;;;;8.73;6.07;;;18.60;67.10;;;;;;4956808;28;20884;-76
2023/05/23 00:26:28;;;;;;;6.35;5.60;;;18.50;67.20;;;;;;4979962;28;20037;-76
2023/05/23 00:28:55;;;;;;;7.80;6.03;;;18.50;67.40;;;;;;4984990;28;20852;-75
2023/05/23 00:31:21;;;;;;;9.23;6.57;;;18.50;67.30;;;;;;4976602;28;20034;-77
2023/05/23 00:33:46;;;;;;;10.30;6.32;;;18.40;67.40;;;;;;4993360;28;20127;-75
2023/05/23 00:36:12;;;;;;;7.82;6.22;;;18.40;67.60;;;;;;5000082;28;20036;-77
2023/05/23 00:38:38;;;;;;;8.93;6.05;;;18.40;67.70;;;;;;4983154;28;20034;-76
2023/05/23 00:41:04;;;;;;;6.65;5.45;;;18.40;67.80;;;;;;4999965;28;20460;-76
2023/05/23 00:43:30;;;;;;;9.15;5.63;;;18.40;67.90;;;;;;5018235;28;21979;-76
2023/05/23 00:45:56;;;;;;;9.70;5.82;;;18.40;67.80;;;;;;4983996;28;20120;-76
2023/05/23 00:48:21;;;;;;;9.30;6.45;;;18.40;67.80;;;;;;4977961;28;20108;-75
2023/05/23 00:50:47;;;;;;;10.77;7.20;;;18.40;68.00;;;;;;4970971;28;20030;-76
2023/05/23 00:53:12;;;;;;;9.75;6.72;;;18.40;68.10;;;;;;4959827;28;20045;-76
2023/05/23 00:55:38;;;;;;;10.00;6.72;;;18.30;68.20;;;;;;5002805;28;20391;-76
2023/05/23 00:58:04;;;;;;;8.23;6.63;;;18.30;68.30;;;;;;4982887;28;20095;-76
2023/05/23 01:00:30;;;;;;;8.15;5.43;;;18.40;68.40;;;;;;4966290;28;20049;-76
2023/05/23 01:02:55;;;;;;;7.22;6.30;;;18.40;68.40;;;;;;4967483;28;20034;-76
2023/05/23 01:05:23;;;;;;;9.68;6.88;;;18.40;68.30;;;;;;4959131;28;20032;-76
2023/05/23 01:07:49;;;;;;;9.10;6.93;;;18.40;68.60;;;;;;4978833;28;20104;-75
2023/05/23 01:10:16;;;;;;;8.13;6.82;;;18.40;68.80;;;;;;4956848;28;20041;-76
2023/05/23 01:12:56;;;;;;;8.15;6.32;;;18.30;68.60;;;;;;4931647;28;20070;-76
2023/05/23 01:15:25;;;;;;;7.90;6.45;;;18.30;68.70;;;;;;4973752;28;20547;-76
2023/05/23 01:18:07;;;;;;;7.88;6.22;;;18.30;68.70;;;;;;4966607;28;20056;-76
2023/05/23 01:20:51;;;;;;;9.50;6.95;;;18.30;69.00;;;;;;4959454;28;20129;-76
2023/05/23 01:24:04;;;;;;;8.75;5.85;;;18.30;69.50;;;;;;4962695;28;20042;-76
2023/05/23 01:26:40;;;;;;;9.50;7.20;;;18.30;69.20;;;;;;4954501;28;20492;-76
2023/05/23 01:29:13;;;;;;;7.68;6.43;;;18.30;69.40;;;;;;4966876;28;20038;-76
2023/05/23 01:31:43;;;;;;;7.38;6.00;;;18.30;69.40;;;;;;4972771;28;20764;-76
2023/05/23 01:34:08;;;;;;;8.05;6.72;;;18.30;69.20;;;;;;4943477;28;20035;-76
2023/05/23 01:36:34;;;;;;;8.90;6.40;;;18.30;69.20;;;;;;4957326;28;20048;-76
2023/05/23 01:39:00;;;;;;;7.82;6.53;;;18.20;69.40;;;;;;4971943;28;20105;-76
2023/05/23 01:41:27;;;;;;;8.25;6.65;;;18.20;69.30;;;;;;4969775;28;20038;-76
2023/05/23 01:43:53;;;;;;;8.98;5.95;;;18.20;69.30;;;;;;4955079;28;20607;-76
2023/05/23 01:46:19;;;;;;;9.50;7.07;;;18.20;69.50;;;;;;4957177;28;20030;-76
2023/05/23 01:48:44;;;;;;;7.25;6.55;;;18.20;69.50;;;;;;4956052;28;20081;-75
2023/05/23 01:51:10;;;;;;;11.00;6.90;;;18.20;69.80;;;;;;4971463;28;20126;-77
2023/05/23 01:53:36;;;;;;;7.07;6.20;;;18.20;70.00;;;;;;4953659;28;20042;-76
2023/05/23 01:56:02;;;;;;;10.27;7.43;;;18.20;70.00;;;;;;4960323;28;20058;-76
2023/05/23 01:58:28;;;;;;;10.48;7.20;;;18.20;70.00;;;;;;4974786;28;20635;-76
2023/05/23 02:00:53;;;;;;;6.80;5.68;;;18.10;70.00;;;;;;4978891;28;20121;-76
2023/05/23 02:03:19;;;;;;;7.50;6.38;;;18.20;70.10;;;;;;5007049;28;20044;-77
2023/05/23 02:05:45;;;;;;;8.18;6.47;;;18.20;70.00;;;;;;4972370;28;20030;-76
2023/05/23 02:08:10;;;;;;;7.57;6.07;;;18.20;70.10;;;;;;4993475;28;20641;-76
2023/05/23 02:10:36;;;;;;;7.25;6.38;;;18.20;70.20;;;;;;4975614;28;20653;-76
2023/05/23 02:13:01;;;;;;;7.78;5.97;;;18.10;70.30;;;;;;4994936;28;20033;-76
2023/05/23 02:15:27;;;;;;;9.02;6.63;;;18.10;70.20;;;;;;4968096;28;20084;-76
2023/05/23 02:17:52;;;;;;;7.88;6.57;;;18.10;70.20;;;;;;4960114;28;20192;-76
2023/05/23 02:20:18;;;;;;;9.63;6.40;;;18.20;70.30;;;;;;4961604;28;20066;-77
2023/05/23 02:22:44;;;;;;;8.35;6.20;;;18.10;70.30;;;;;;4959012;28;20049;-76
2023/05/23 02:25:10;;;;;;;9.48;6.35;;;18.10;70.40;;;;;;4984426;28;20038;-76
2023/05/23 02:27:35;;;;;;;8.27;6.78;;;18.10;70.40;;;;;;4998085;28;20426;-76
2023/05/23 02:30:01;;;;;;;11.30;7.10;;;18.10;70.60;;;;;;4975150;28;20030;-76
2023/05/23 02:32:26;;;;;;;8.57;6.70;;;18.10;70.80;;;;;;4961113;28;20124;-76
2023/05/23 02:34:52;;;;;;;10.02;6.47;;;18.10;70.80;;;;;;4995710;28;20042;-75
2023/05/23 02:37:17;;;;;;;8.48;6.20;;;18.10;70.80;;;;;;4976937;28;20064;-76
2023/05/23 02:39:43;;;;;;;12.75;7.70;;;18.10;70.80;;;;;;4995307;28;20037;-76
2023/05/23 02:42:08;;;;;;;9.68;7.47;;;18.10;70.90;;;;;;4995612;28;20164;-76
2023/05/23 02:44:34;;;;;;;9.88;6.82;;;18.10;71.00;;;;;;4992021;28;20661;-76
2023/05/23 02:47:00;;;;;;;9.13;6.63;;;18.10;71.10;;;;;;4993377;28;20555;-77
2023/05/23 02:49:25;;;;;;;10.02;6.90;;;18.00;71.10;;;;;;4994393;28;20042;-76
2023/05/23 02:51:51;;;;;;;9.88;6.80;;;18.00;71.30;;;;;;4991600;28;20045;-76
2023/05/23 02:54:16;;;;;;;10.25;6.55;;;18.00;71.50;;;;;;4979089;28;20037;-76
2023/05/23 02:56:43;;;;;;;10.52;6.85;;;18.00;71.50;;;;;;4993217;28;20509;-76
2023/05/23 02:59:11;;;;;;;8.15;6.32;;;17.90;71.60;;;;;;4996146;28;20125;-76
2023/05/23 03:01:36;;;;;;;14.02;7.25;;;17.90;71.70;;;;;;4997823;28;20030;-76
2023/05/23 03:04:02;;;;;;;10.20;7.25;;;17.90;71.60;;;;;;4998840;28;20037;-75
2023/05/23 03:06:27;;;;;;;11.35;7.05;;;17.80;71.70;;;;;;4983156;28;20113;-75
2023/05/23 03:08:53;;;;;;;9.13;7.10;;;17.80;71.90;;;;;;4997303;28;20167;-76
2023/05/23 03:11:18;;;;;;;9.60;7.10;;;17.70;72.00;;;;;;4977013;28;20116;-76
2023/05/23 03:13:44;;;;;;;9.77;7.47;;;17.70;72.10;;;;;;4990110;28;20120;-76
2023/05/23 03:16:11;;;;;;;10.98;8.15;;;17.70;72.20;;;;;;4981721;28;20132;-76
2023/05/23 03:18:36;;;;;;;12.57;8.18;;;17.60;72.30;;;;;;4978931;28;20055;-76
2023/05/23 03:21:02;;;;;;;8.38;6.50;;;17.60;72.60;;;;;;5013711;28;20057;-76
2023/05/23 03:23:27;;;;;;;9.80;7.43;;;17.60;72.70;;;;;;4995612;28;20064;-75
2023/05/23 03:25:53;;;;;;;11.57;7.40;;;17.50;72.60;;;;;;4979633;28;20140;-76
2023/05/23 03:28:19;;;;;;;9.68;7.28;;;17.50;72.70;;;;;;4995327;28;22384;-76
2023/05/23 03:30:44;;;;;;;9.40;6.80;;;17.50;72.80;;;;;;4996000;28;20107;-76
2023/05/23 03:33:11;;;;;;;11.82;7.93;;;17.40;72.90;;;;;;4995273;28;20092;-76
2023/05/23 03:35:36;;;;;;;10.30;6.97;;;17.40;73.10;;;;;;4994123;28;20048;-76
2023/05/23 03:38:02;;;;;;;8.90;6.85;;;17.40;73.10;;;;;;4996706;28;20041;-76
2023/05/23 03:40:28;;;;;;;9.43;7.43;;;17.30;73.20;;;;;;4963857;28;20037;-76
2023/05/23 03:43:03;;;;;;;9.45;7.30;;;17.30;73.40;;;;;;4994249;28;20129;-76
2023/05/23 03:45:30;;;;;;;10.38;7.60;;;17.20;73.70;;;;;;5012072;28;20037;-76
2023/05/23 03:47:55;;;;;;;10.00;7.00;;;17.20;73.60;;;;;;4999038;28;20559;-77
2023/05/23 03:50:21;;;;;;;10.63;7.20;;;17.20;73.70;;;;;;4997255;28;20040;-77
2023/05/23 03:52:46;;;;;;;7.82;6.25;;;17.20;73.90;;;;;;4991226;28;20041;-77
2023/05/23 03:55:12;;;;;;;8.25;6.38;;;17.10;74.70;;;;;;5007934;28;20032;-77
2023/05/23 03:57:37;;;;;;;10.68;7.03;;;17.20;73.90;;;;;;4999867;28;20048;-77
2023/05/23 04:00:10;;;;;;;11.73;7.35;;;17.20;73.70;;;;;;4998322;28;20590;-77
2023/05/23 04:02:36;;;;;;;8.80;6.30;;;17.20;73.80;;;;;;4984687;28;20034;-76
2023/05/23 04:05:01;;;;;;;8.18;5.82;;;17.20;73.90;;;;;;4994813;28;20038;-76
2023/05/23 04:07:27;;;;;;;8.05;6.55;;;17.20;73.90;;;;;;4995392;28;20030;-76
2023/05/23 04:09:53;;;;;;;9.65;7.43;;;17.20;73.70;;;;;;4982857;28;20037;-76
2023/05/23 04:12:20;;;;;;;9.48;6.70;;;17.20;73.70;;;;;;4996334;28;20504;-77
2023/05/23 04:14:47;;;;;;;8.68;6.40;;;17.20;73.70;;;;;;4998180;28;20040;-77
2023/05/23 04:17:13;;;;;;;9.13;7.43;;;17.20;73.60;;;;;;4998417;28;20177;-78
2023/05/23 04:19:39;;;;;;;8.98;6.97;;;17.20;73.40;;;;;;4996663;28;20662;-77
2023/05/23 04:22:04;;;;;;;8.13;6.30;;;17.20;73.70;;;;;;5016809;28;20029;-76
2023/05/23 04:24:30;;;;;;;10.27;7.05;;;17.20;73.70;;;;;;4980757;28;20046;-76
2023/05/23 04:26:56;;;;;;;7.88;6.07;;;17.20;73.60;;;;;;4997188;28;20554;-76
2023/05/23 04:29:23;;;;;;;8.38;7.03;;;17.20;73.60;;;;;;4999867;28;20555;-76
2023/05/23 04:31:49;;;;;;;9.60;7.57;;;17.30;73.50;;;;;;4997789;28;20042;-75
2023/05/23 04:34:16;;;;;;;10.93;7.15;;;17.20;73.60;;;;;;4981698;28;20041;-76
2023/05/23 04:36:43;;;;;;;10.77;7.45;;;17.20;73.90;;;;;;4997601;28;20034;-76
2023/05/23 04:39:09;;;;;;;9.57;6.93;;;17.20;73.90;;;;;;4980991;28;20042;-76
2023/05/23 04:41:35;;;;;;;8.70;6.57;;;17.20;74.00;;;;;;4996078;28;20064;-76
2023/05/23 04:44:01;;;;;;;10.45;6.63;;;17.20;73.90;;;;;;4995163;28;20620;-76
2023/05/23 04:46:26;;;;;;;11.07;7.32;;;17.30;73.90;;;;;;4979216;28;20044;-77
2023/05/23 04:48:53;;;;;;;8.60;6.60;;;17.30;73.90;;;;;;4998240;28;20057;-76
2023/05/23 04:51:20;;;;;;;9.38;6.75;;;17.30;73.90;;;;;;4984223;28;20037;-76
2023/05/23 04:53:46;;;;;;;10.20;6.95;;;17.40;73.80;;;;;;4980132;28;20065;-76
2023/05/23 04:56:12;;;;;;;8.80;6.72;;;17.40;73.70;;;;;;4996203;28;20075;-76
2023/05/23 04:58:40;;;;;;;10.82;9.05;;;17.40;73.60;;;;;;4981509;28;20799;-76
2023/05/23 05:01:08;;;;;;;8.98;7.68;;;17.40;73.60;;;;;;5011834;28;20563;-76
2023/05/23 05:03:34;;;;;;;8.68;7.15;;;17.50;73.80;;;;;;5014130;28;20037;-76
2023/05/23 05:06:00;;;;;;;13.93;9.23;;;17.40;74.40;;;;;;4997136;28;20052;-77
2023/05/23 05:08:26;;;;;;;11.25;8.85;;;17.50;73.60;;;;;;4995232;28;20044;-76
2023/05/23 05:10:52;;;;;;;15.35;10.60;;;17.50;74.50;;;;;;5013029;28;20033;-75
2023/05/23 05:13:18;;;;;;;11.90;8.40;;;17.50;73.80;;;;;;4982838;28;20037;-76
2023/05/23 05:15:43;;;;;;;11.15;8.50;;;17.50;74.00;;;;;;4991485;28;20037;-76
2023/05/23 05:18:10;;;;;;;19.02;10.73;;;17.60;73.90;;;;;;4962514;28;20069;-76
2023/05/23 05:20:36;;;;;;;12.45;8.65;;;17.60;73.90;;;;;;4977142;28;20419;-76
2023/05/23 05:23:02;;;;;;;9.20;8.02;;;17.60;74.10;;;;;;5008050;28;20044;-76
2023/05/23 05:25:30;;;;;;;19.08;10.70;;;17.70;74.00;;;;;;5011979;28;20069;-76
2023/05/23 05:27:57;;;;;;;10.23;7.63;;;17.70;73.90;;;;;;4997216;28;20033;-76
2023/05/23 05:30:23;;;;;;;9.05;7.30;;;17.70;73.90;;;;;;5015134;28;20087;-77
2023/05/23 05:32:48;;;;;;;11.27;8.80;;;17.70;73.60;;;;;;5011179;28;20662;-78
2023/05/23 05:35:14;;;;;;;15.25;9.30;;;17.70;73.50;;;;;;5012784;28;20079;-76
2023/05/23 05:37:40;;;;;;;16.13;9.50;;;17.80;73.70;;;;;;5010300;28;20095;-75
2023/05/23 05:40:07;;;;;;;11.52;8.07;;;17.80;73.60;;;;;;5003214;28;20050;-76
2023/05/23 05:42:32;;;;;;;12.40;7.88;;;17.80;73.50;;;;;;4975999;28;20048;-77
2023/05/23 05:44:58;;;;;;;12.98;7.65;;;17.90;73.60;;;;;;5002106;28;20041;-75
2023/05/23 05:47:23;;;;;;;11.40;7.75;;;17.90;73.40;;;;;;4997664;28;20500;-77
2023/05/23 05:49:49;;;;;;;11.73;8.05;;;18.00;73.30;;;;;;5004980;28;20669;-78
2023/05/23 05:52:14;;;;;;;11.50;7.70;;;18.00;73.20;;;;;;5012565;28;20500;-77
2023/05/23 05:54:40;;;;;;;13.07;8.77;;;18.00;73.10;;;;;;5007074;28;20551;-77
2023/05/23 05:57:05;;;;;;;10.15;7.05;;;18.10;73.00;;;;;;4994946;28;20082;-77
2023/05/23 05:59:31;;;;;;;9.52;6.50;;;18.20;72.90;;;;;;4994025;28;20065;-77
2023/05/23 06:01:56;;;;;;;12.20;7.20;;;18.20;72.80;;;;;;4968272;28;20192;-77
2023/05/23 06:04:22;;;;;;;7.95;6.50;;;18.30;72.60;;;;;;4976377;28;20038;-77
2023/05/23 06:06:48;;;;;;;8.00;5.78;;;18.30;72.40;;;;;;4992567;28;20033;-77
2023/05/23 06:09:13;;;;;;;8.05;6.25;;;18.30;72.10;;;;;;4977929;28;20540;-76
2023/05/23 06:11:39;;;;;;;9.63;5.80;;;18.40;71.80;;;;;;4990311;28;20188;-76
2023/05/23 06:14:05;;;;;;;7.75;5.68;;;18.40;71.60;;;;;;4992480;28;20493;-76
2023/05/23 06:16:31;;;;;;;8.02;6.03;;;18.40;71.30;;;;;;4975762;28;20133;-79
2023/05/23 06:18:56;;;;;;;7.88;5.38;;;18.50;71.10;;;;;;4992349;28;20591;-76
2023/05/23 06:21:22;;;;;;;6.28;4.65;;;18.40;70.80;;;;;;4975838;28;20026;-77
2023/05/23 06:23:47;;;;;;;9.90;5.57;;;18.50;70.70;;;;;;4991091;28;20405;-76
2023/05/23 06:26:13;;;;;;;9.50;5.25;;;18.50;70.40;;;;;;4993118;28;20535;-77
2023/05/23 06:28:39;;;;;;;9.05;5.63;;;18.60;70.10;;;;;;4975479;28;20030;-77
2023/05/23 06:31:04;;;;;;;7.45;4.88;;;18.60;69.90;;;;;;4992707;28;20038;-76
2023/05/23 06:33:31;;;;;;;6.82;4.78;;;18.60;69.60;;;;;;4978232;28;20153;-76
2023/05/23 06:35:56;;;;;;;10.45;5.00;;;18.70;69.30;;;;;;4960626;28;20049;-77
2023/05/23 06:38:22;;;;;;;6.10;4.68;;;18.70;69.10;;;;;;4994738;28;20064;-76
2023/05/23 06:40:47;;;;;;;8.30;5.40;;;18.70;68.90;;;;;;4992624;28;20044;-77
2023/05/23 06:43:13;;;;;;;5.78;4.25;;;18.70;68.70;;;;;;4990740;28;20033;-77
2023/05/23 06:45:38;;;;;;;4.82;4.15;;;18.80;68.50;;;;;;4991171;28;20038;-77
2023/05/23 06:48:04;;;;;;;4.65;4.13;;;18.80;68.30;;;;;;4996055;28;20026;-77
2023/05/23 06:50:30;;;;;;;5.97;3.83;;;18.80;68.20;;;;;;4993179;28;20406;-78
2023/05/23 06:52:55;;;;;;;5.88;3.92;;;18.80;67.90;;;;;;4996082;28;20045;-76
2023/05/23 06:55:22;;;;;;;3.92;3.63;;;18.80;67.70;;;;;;4999330;28;20046;-77
2023/05/23 06:57:50;;;;;;;7.05;4.18;;;18.80;67.60;;;;;;4962408;28;20046;-76
2023/05/23 07:00:16;;;;;;;4.88;3.67;;;18.90;67.50;;;;;;4951144;28;20727;-77
2023/05/23 07:02:44;;;;;;;3.83;3.33;;;18.90;67.30;;;;;;4973137;28;20042;-77
2023/05/23 07:05:09;;;;;;;3.58;3.03;;;18.90;67.10;;;;;;4976405;28;20107;-76
2023/05/23 07:07:35;;;;;;;4.72;3.10;;;18.90;66.80;;;;;;4976282;28;20042;-77
2023/05/23 07:10:00;;;;;;;8.23;3.72;;;19.00;66.60;;;;;;4977442;28;20056;-78
2023/05/23 07:12:26;;;;;;;5.78;3.35;;;19.00;66.40;;;;;;4959044;28;20045;-76
2023/05/23 07:14:51;;;;;;;3.50;3.20;;;19.10;66.20;;;;;;4954102;28;20046;-77
2023/05/23 07:17:17;;;;;;;4.18;3.17;;;19.10;65.90;;;;;;4967410;28;20039;-77
2023/05/23 07:19:43;;;;;;;6.32;3.30;;;19.10;65.80;;;;;;4992210;28;20048;-77
2023/05/23 07:22:08;;;;;;;5.78;3.33;;;19.10;65.70;;;;;;4964847;28;20627;-76
2023/05/23 07:24:35;;;;;;;3.30;2.92;;;19.10;65.60;;;;;;4961218;28;20456;-75
2023/05/23 07:27:01;;;;;;;3.50;3.10;;;19.10;65.40;;;;;;4968570;28;20034;-76
2023/05/23 07:29:26;;;;;;;3.22;2.78;;;19.10;65.40;;;;;;4969661;28;20056;-76
2023/05/23 07:31:52;;;;;;;4.57;3.58;;;19.10;65.30;;;;;;4997081;28;20424;-76
2023/05/23 07:34:18;;;;;;;5.32;3.17;;;19.10;65.20;;;;;;4966901;28;20033;-77
2023/05/23 07:36:43;;;;;;;4.43;3.45;;;19.10;65.20;;;;;;4980149;28;20123;-76
2023/05/23 07:39:09;;;;;;;4.03;2.95;;;19.10;65.10;;;;;;4998406;28;20042;-76
2023/05/23 07:41:35;;;;;;;4.43;3.30;;;19.10;65.10;;;;;;4975131;28;20544;-75
2023/05/23 07:44:00;;;;;;;5.03;3.70;;;19.10;65.10;;;;;;4981506;28;20061;-77
2023/05/23 07:46:26;;;;;;;5.85;3.97;;;19.10;65.00;;;;;;4999065;28;20034;-77
2023/05/23 07:48:51;;;;;;;4.63;3.65;;;19.20;65.10;;;;;;4998144;28;20100;-77
2023/05/23 07:51:20;;;;;;;4.22;3.22;;;19.20;65.00;;;;;;4980831;28;20043;-77
2023/05/23 07:53:45;;;;;;;4.20;3.05;;;19.30;65.00;;;;;;4994732;28;20049;-75
2023/05/23 07:56:11;;;;;;;5.28;3.42;;;19.20;64.80;;;;;;4980021;28;20046;-77
2023/05/23 07:58:36;;;;;;;5.45;3.17;;;19.30;64.80;;;;;;4963302;28;20095;-77
2023/05/23 08:01:02;;;;;;;3.15;2.88;;;19.30;64.70;;;;;;4994477;28;20108;-77
2023/05/23 08:03:27;;;;;;;4.13;2.97;;;19.30;64.60;;;;;;5015945;28;20037;-77
2023/05/23 08:05:53;;;;;;;3.92;2.92;;;19.40;64.70;;;;;;5000461;28;20029;-77
2023/05/23 08:08:19;;;;;;;3.10;2.75;;;19.40;64.60;;;;;;5017126;28;20029;-77
2023/05/23 08:10:44;;;;;;;2.95;2.53;;;19.50;64.50;;;;;;4998874;28;20060;-77
2023/05/23 08:13:10;;;;;;;3.00;2.70;;;19.70;64.50;;;;;;4998605;28;20124;-77
2023/05/23 08:15:35;;;;;;;2.83;2.53;;;19.90;64.20;;;;;;5012797;28;20033;-77
2023/05/23 08:18:01;;;;;;;2.28;2.08;;;20.10;63.90;;;;;;5014456;28;20721;-77
2023/05/23 08:20:30;;;;;;;2.20;2.00;;;20.30;63.70;;;;;;5014660;28;20038;-76
2023/05/23 08:22:59;;;;;;;2.25;2.05;;;20.50;63.50;;;;;;4996809;28;20473;-77
2023/05/23 08:25:29;;;;;;;3.22;1.80;;;20.70;63.00;;;;;;4990571;28;20125;-77
2023/05/23 08:27:55;;;;;;;2.92;2.10;;;20.90;62.70;;;;;;5014268;28;20041;-78
2023/05/23 08:30:22;;;;;;;5.25;2.35;;;21.00;62.30;;;;;;5015320;28;20148;-77
2023/05/23 08:32:47;;;;;;;4.80;1.75;;;21.10;61.90;;;;;;5005447;28;20038;-77
2023/05/23 08:35:13;;;;;;;2.22;1.63;;;21.10;61.30;;;;;;5006730;28;20044;-77
2023/05/23 08:37:38;;;;;;;2.20;2.00;;;21.20;61.20;;;;;;4986218;28;20123;-77
2023/05/23 08:40:07;;;;;;;3.88;1.92;;;21.20;60.80;;;;;;4999095;28;20044;-77
2023/05/23 08:42:33;;;;;;;1.77;1.67;;;21.20;60.50;;;;;;5010213;28;20034;-77
2023/05/23 08:44:58;;;;;;;5.35;2.13;;;21.20;60.40;;;;;;4986884;28;20670;-77
2023/05/23 08:47:24;;;;;;;4.93;1.95;;;21.20;60.20;;;;;;5013517;28;20436;-77
2023/05/23 08:49:50;;;;;;;3.08;1.80;;;21.20;59.90;;;;;;4998560;28;20125;-77
2023/05/23 08:52:16;;;;;;;2.90;2.00;;;21.20;59.70;;;;;;4998254;28;20140;-77
2023/05/23 08:57:26;;;;;;;3.35;1.90;;;21.20;59.50;;;;;;5014023;28;20063;-76
2023/05/23 08:59:52;;;;;;;2.22;1.67;;;21.20;59.50;;;;;;5013232;28;20539;-77
2023/05/23 09:02:17;;;;;;;2.22;1.83;;;21.20;59.50;;;;;;5010130;28;20045;-78
2023/05/23 09:04:43;;;;;;;3.05;1.60;;;21.20;59.50;;;;;;5006911;28;20124;-77
2023/05/23 09:07:08;;;;;;;2.15;1.95;;;21.20;59.50;;;;;;5015863;28;20065;-78
2023/05/23 09:09:34;;;;;;;2.03;1.58;;;21.20;59.30;;;;;;5015267;28;20061;-77
2023/05/23 09:12:02;;;;;;;3.05;1.40;;;21.30;59.30;;;;;;5014347;28;20072;-77
2023/05/23 09:14:30;;;;;;;1.75;1.58;;;21.30;59.20;;;;;;5005963;28;20041;-77
2023/05/23 09:17:00;;;;;;;1.42;1.33;;;21.40;59.20;;;;;;4976836;28;20080;-77
2023/05/23 09:19:26;;;;;;;3.38;1.30;;;21.50;59.00;;;;;;4987376;28;20076;-77
2023/05/23 09:21:52;;;;;;;2.67;1.40;;;21.50;59.00;;;;;;5011190;28;20045;-78
2023/05/23 09:24:18;;;;;;;3.97;1.60;;;21.50;58.80;;;;;;5013768;28;20038;-77
2023/05/23 09:26:46;;;;;;;2.20;1.77;;;21.50;58.70;;;;;;4965048;28;20048;-77
2023/05/23 09:29:12;;;;;;;1.60;1.50;;;21.60;58.50;;;;;;5006296;28;20092;-77
2023/05/23 09:31:37;;;;;;;2.78;1.65;;;21.60;58.60;;;;;;5005203;28;20068;-77
2023/05/23 09:34:03;;;;;;;1.50;1.40;;;21.50;58.40;;;;;;5010820;28;20582;-77
2023/05/23 09:36:33;;;;;;;1.70;1.60;;;21.50;58.40;;;;;;5013725;28;20030;-76
2023/05/23 09:39:02;;;;;;;1.37;1.27;;;21.60;58.40;;;;;;4997758;28;20049;-76
2023/05/23 09:41:29;;;;;;;2.72;1.88;;;21.60;58.30;;;;;;4981592;28;20451;-77
2023/05/23 09:43:55;;;;;;;3.95;1.58;;;21.60;58.20;;;;;;4994373;28;20468;-77
2023/05/23 09:46:21;;;;;;;4.25;1.75;;;21.60;58.10;;;;;;5014897;28;20888;-79
2023/05/23 09:48:47;;;;;;;2.70;1.58;;;21.50;57.90;;;;;;5011152;28;20041;-77
2023/05/23 09:51:13;;;;;;;1.80;1.50;;;21.50;57.90;;;;;;5014101;28;20032;-77
2023/05/23 09:53:38;;;;;;;3.03;1.45;;;21.50;57.90;;;;;;5013640;28;20037;-77
2023/05/23 09:56:04;;;;;;;1.90;1.70;;;21.50;57.90;;;;;;5011767;28;20034;-78
2023/05/23 09:58:30;;;;;;;2.75;1.88;;;21.50;58.00;;;;;;5013777;28;20037;-77
2023/05/23 10:00:56;;;;;;;3.22;2.42;;;21.50;58.00;;;;;;4995319;28;20124;-77
2023/05/23 10:03:34;;;;;;;2.90;2.20;;;21.60;58.00;;;;;;5012511;28;20388;-78
2023/05/23 10:06:11;;;;;;;3.45;1.98;;;21.60;57.80;;;;;;4988329;28;20148;-77
2023/05/23 10:08:45;;;;;;;3.88;1.55;;;21.60;57.90;;;;;;4976829;28;20038;-77
2023/05/23 10:11:15;;;;;;;1.77;1.65;;;21.70;57.90;;;;;;4995013;28;20112;-77
2023/05/23 10:13:42;;;;;;;1.33;1.20;;;21.80;57.90;;;;;;4995117;28;20045;-77
2023/05/23 10:16:11;;;;;;;3.25;1.73;;;21.80;57.90;;;;;;4999672;28;20053;-77
2023/05/23 10:18:43;;;;;;;1.63;1.40;;;21.80;57.80;;;;;;5009450;28;20184;-78
2023/05/23 10:21:11;;;;;;;1.73;1.50;;;21.80;57.60;;;;;;4986878;28;20038;-77
2023/05/23 10:23:36;;;;;;;4.68;1.85;;;21.90;57.60;;;;;;5005311;28;20041;-77
2023/05/23 10:26:03;;;;;;;2.70;1.23;;;21.90;57.50;;;;;;4994925;28;20045;-77
2023/05/23 10:28:32;;;;;;;3.72;1.40;;;21.90;57.50;;;;;;5000873;28;20043;-76
2023/05/23 10:30:58;;;;;;;1.30;1.20;;;22.00;57.40;;;;;;4996593;28;20057;-76
2023/05/23 10:33:24;;;;;;;1.92;1.55;;;22.00;57.40;;;;;;5013174;28;20030;-76
2023/05/23 10:35:55;;;;;;;3.45;1.45;;;22.00;57.30;;;;;;4995138;28;20030;-76
2023/05/23 10:38:33;;;;;;;1.70;1.60;;;22.00;57.10;;;;;;4985339;28;20049;-77
2023/05/23 10:41:20;;;;;;;2.20;1.58;;;22.00;57.00;;;;;;4980395;28;20520;-77
2023/05/23 10:44:23;;;;;;;2.10;1.15;;;22.00;57.10;;;;;;4987832;28;20762;-77
2023/05/23 10:46:57;;;;;;;1.70;1.60;;;22.10;57.20;;;;;;4978533;28;20030;-76
2023/05/23 10:49:48;;;;;;;1.95;1.40;;;22.20;57.20;;;;;;4999685;28;20042;-76
2023/05/23 10:52:15;;;;;;;1.30;1.20;;;22.30;57.00;;;;;;5010243;28;20038;-76
2023/05/23 10:54:49;;;;;;;2.33;1.40;;;22.30;57.00;;;;;;5011676;28;20045;-76
2023/05/23 10:57:34;;;;;;;2.47;1.33;;;22.40;56.90;;;;;;4996061;28;20094;-76
2023/05/23 11:00:00;;;;;;;7.97;1.73;;;22.40;56.90;;;;;;5012807;28;20725;-76
2023/05/23 11:02:27;;;;;;;3.97;1.80;;;22.40;56.80;;;;;;4994492;28;20066;-76
2023/05/23 11:05:18;;;;;;;1.42;1.33;;;22.40;56.70;;;;;;5011568;28;20038;-76
2023/05/23 11:07:43;;;;;;;;;;;22.50;56.70;;;;;;4996736;28;20103;-76
2023/05/23 11:10:10;;;;;;;4.03;1.40;;;22.60;56.80;;;;;;4984869;28;20124;-76
2023/05/23 11:12:40;;;;;;;2.72;1.52;;;22.60;56.60;;;;;;4977078;28;20037;-76
2023/05/23 11:18:27;;;;;;;1.50;1.40;;;22.70;56.10;;;;;;5008358;28;20053;-74
2023/05/23 11:20:53;;;;;;;3.28;1.40;;;22.70;56.30;;;;;;4994845;28;20071;-76
2023/05/23 11:23:20;;;;;;;4.05;1.30;;;22.80;56.30;;;;;;4981939;28;20400;-74
2023/05/23 11:25:52;;;;;;;1.50;1.40;;;22.80;56.20;;;;;;4979798;28;20061;-76
2023/05/23 11:28:18;;;;;;;1.40;1.30;;;22.80;56.00;;;;;;4996791;28;20041;-76
2023/05/23 11:30:43;;;;;;;3.55;1.60;;;22.80;56.10;;;;;;4980544;28;20044;-77
2023/05/23 11:33:12;;;;;;;1.40;1.30;;;22.80;56.00;;;;;;4996957;28;20589;-77
2023/05/23 11:35:56;;;;;;;2.90;1.55;;;22.90;56.10;;;;;;4981194;28;20052;-76
2023/05/23 11:38:21;;;;;;;1.60;1.50;;;22.90;55.80;;;;;;4980724;28;20041;-77
2023/05/23 11:40:47;;;;;;;1.60;1.40;;;22.90;56.00;;;;;;4979549;28;20068;-76
2023/05/23 11:43:14;;;;;;;1.45;1.35;;;22.90;55.90;;;;;;4982529;28;20038;-77
2023/05/23 11:45:40;;;;;;;1.80;1.40;;;22.90;55.80;;;;;;4985698;28;20042;-76
2023/05/23 11:48:06;;;;;;;4.05;1.40;;;22.90;55.70;;;;;;4981783;28;20125;-76
2023/05/23 11:50:31;;;;;;;3.15;1.50;;;22.90;55.70;;;;;;5011897;28;20049;-76
2023/05/23 11:52:57;;;;;;;2.08;1.45;;;22.90;55.70;;;;;;4982548;28;20052;-76
2023/05/23 11:55:22;;;;;;;6.72;1.40;;;22.80;55.60;;;;;;4967185;28;20108;-76
2023/05/23 11:57:48;;;;;;;4.57;1.52;;;22.80;55.70;;;;;;4983637;28;20091;-76
2023/05/23 12:00:14;;;;;;;5.65;1.30;;;22.80;55.80;;;;;;4977001;28;20611;-77
2023/05/23 12:02:41;;;;;;;1.60;1.40;;;22.70;55.80;;;;;;4993368;28;20038;-76
2023/05/23 12:05:12;;;;;;;3.33;1.40;;;22.70;55.80;;;;;;4996268;28;20036;-76
2023/05/23 12:07:47;;;;;;;1.83;1.40;;;22.70;55.80;;;;;;4983551;28;20088;-76
2023/05/23 12:10:16;;;;;;;4.47;2.00;;;22.60;55.90;;;;;;4985155;28;20045;-76
2023/05/23 12:12:42;;;;;;;6.60;1.55;;;22.60;55.90;;;;;;4998724;28;20049;-76
2023/05/23 12:15:10;;;;;;;1.77;1.52;;;22.60;56.00;;;;;;4999841;28;20042;-76
2023/05/23 12:17:43;;;;;;;1.92;1.50;;;22.60;56.00;;;;;;4981761;28;20653;-76
2023/05/23 12:20:09;;;;;;;3.90;1.55;;;22.60;56.00;;;;;;4979171;28;20046;-77
2023/05/23 12:22:35;;;;;;;3.33;2.10;;;22.50;56.00;;;;;;4962849;28;20065;-77
2023/05/23 12:25:00;;;;;;;2.17;1.50;;;22.60;56.00;;;;;;4996942;28;20128;-76
2023/05/23 12:27:33;;;;;;;3.47;1.65;;;22.60;56.00;;;;;;4994755;28;20033;-76
2023/05/23 12:30:24;;;;;;;3.65;1.65;;;22.60;55.90;;;;;;4994218;28;20046;-74
2023/05/23 12:32:50;;;;;;;2.67;1.50;;;22.60;55.90;;;;;;4992572;28;20325;-76
2023/05/23 12:35:15;;;;;;;3.58;1.73;;;22.60;56.00;;;;;;4994309;28;20120;-77
2023/05/23 12:37:43;;;;;;;1.55;1.45;;;22.50;56.00;;;;;;4979537;28;20076;-76
2023/05/23 12:40:14;;;;;;;2.15;1.30;;;22.50;55.90;;;;;;4989627;28;23236;-77
2023/05/23 12:42:43;;;;;;;;;;;22.50;55.90;;;;;;4985563;28;20038;-77
2023/05/23 12:45:09;;;;;;;1.63;1.10;;;22.40;55.90;;;;;;4976517;28;19921;-76
2023/05/23 12:47:34;;;;;;;1.20;1.10;;;22.40;56.00;;;;;;4992481;28;20045;-77
2023/05/23 12:50:00;;;;;;;0.85;0.85;;;22.40;56.00;;;;;;4994167;28;20092;-76
2023/05/23 12:52:26;;;;;;;2.60;0.88;;;22.30;55.80;;;;;;4996707;28;20069;-77